Portada
METAR-TAF:

METAR-TAF

Aeroports :

Besiers, França

latitud: 43-19N, longitud: 003-21E, altitud: 17 m

Observació

L'informe es va fer fa 29 minuts, a les 15:00 UTC
Vent 9 kt del Sud-Est, variant entre Est i Sud
Temperatura 19°C
Humitat 52%
Pressió 1026 hPa
Visibilitat 10 km o més
sense núvols per sota de 1500 mi sense presència de cumulonimbus.

METAR: LFMU 191500Z AUTO 13009KT 090V170 CAVOK 19/09 Q1026 NOSIG

Hora: 17:29 (15:29 UTC)

Pronòstic

L'informe es va fer fa 1 hora i 29 minuts, a les 14:00 UTC
Pronòstic vàlid del 19 a les 15 UTC al 20 a les 15 UTC
Vent 12 kt del Est/Sud-Est
Visibilitat 10 km o més
sense núvols per sota de 1500 mi sense presència de cumulonimbus.
Evolucionant progressivament
l' 19 a les 19 UTC al 19 a les 21 UTC
Vent 5 kt del Nord/Nord-Est
Evolucionant progressivament
l' 20 a les 08 UTC al 20 a les 11 UTC
Vent 20 kt del Est/Sud-Est amb ràfegues de 30 kt

TAF: LFMU 191400Z 1915/2015 12012KT CAVOK BECMG 1919/1921 02005KT BECMG 2008/2011 12020G30KT

Observacions i pronòstics meteorològics de més de 4000 aeroports (METAR i TAF).

Les estacions disponibles són els punts grocs i vermells al mapa.

Posi el ratolí al punt desitjat per veure el nom de l'estació.

Feu clic per veure les observacions i els pronòstics meteorològics.

Per canviar el mapa: feu clic els botons verds amb una creu de color negre per apropar; al botó verd amb un guió per allunyar la imatge; o en les fletxes verdes per a mapes adjacents.


METAR-TAF: